createdAt,value
2023-03-03T03:29:42.935Z,95001.31
2023-03-03T03:32:10.143Z,95009.69
2023-03-03T03:34:37.829Z,95017.81
2023-03-03T03:37:05.555Z,94996.78
2023-03-03T03:39:33.486Z,95005.97
2023-03-03T03:42:01.418Z,95008.31
2023-03-03T03:44:28.344Z,95003.06
2023-03-03T03:46:55.575Z,95001.22
2023-03-03T06:40:26.660Z,95024.81
2023-03-03T06:42:53.569Z,95029.94
2023-03-03T06:45:20.750Z,95032.25
2023-03-03T06:47:47.670Z,95024.34
2023-03-03T06:50:20.486Z,95035.03
2023-03-03T06:52:47.390Z,95017.50
2023-03-03T06:55:22.826Z,95032.00
2023-03-03T06:57:49.776Z,95024.94
2023-03-03T07:00:17.010Z,95034.56
2023-03-03T07:02:44.047Z,95036.66
2023-03-03T07:05:18.617Z,95032.22
2023-03-03T07:07:45.570Z,95029.44
2023-03-03T07:10:27.010Z,95041.75
2023-03-03T07:12:57.030Z,95035.56
2023-03-03T07:15:30.271Z,95039.53
2023-03-03T07:18:02.569Z,95031.50
2023-03-03T07:20:42.058Z,95035.47
2023-03-03T07:23:18.892Z,95026.56
2023-03-03T07:25:46.877Z,95028.44
2023-03-03T07:28:25.338Z,95031.47
2023-03-03T07:30:54.210Z,95029.25
2023-03-03T07:33:45.879Z,95024.94
2023-03-03T08:11:11.424Z,95013.75
2023-03-03T08:13:42.129Z,95007.00
2023-03-03T08:16:09.043Z,95020.00
2023-03-03T08:18:38.888Z,95011.16
2023-03-03T08:21:13.467Z,95014.88
2023-03-03T08:23:40.534Z,95016.25
2023-03-03T08:26:08.023Z,95002.13
2023-03-03T08:28:34.920Z,95009.44
2023-03-03T08:31:15.340Z,95003.03
2023-03-03T08:33:47.355Z,95008.22
2023-03-03T08:36:14.694Z,95007.28
2023-03-03T08:38:41.751Z,95009.09
2023-03-03T08:41:08.715Z,95010.22
2023-03-03T08:43:35.563Z,95008.09
2023-03-03T08:46:05.645Z,95009.22
2023-03-03T08:48:33.954Z,95002.88
2023-03-03T08:51:00.991Z,95007.88
2023-03-03T08:53:29.151Z,95005.19
2023-03-03T08:55:56.293Z,95013.03
2023-03-03T08:58:33.534Z,95005.72
2023-03-03T09:01:01.860Z,95000.19
2023-03-03T09:03:28.832Z,95003.56
2023-03-03T09:05:55.658Z,95009.16
2023-03-03T09:08:23.437Z,95009.84
2023-03-03T09:10:50.490Z,95002.16
2023-03-03T09:13:19.814Z,95012.03
2023-03-03T09:15:49.171Z,95005.03
2023-03-03T09:18:23.214Z,95001.66
2023-03-03T09:20:53.014Z,95000.03
2023-03-03T09:23:39.866Z,95007.19
2023-03-03T09:26:18.756Z,95005.06
2023-03-03T09:28:45.974Z,95011.69
2023-03-03T09:31:26.910Z,95003.06
2023-03-03T09:33:57.993Z,95007.00
2023-03-03T09:36:35.983Z,94997.25
2023-03-03T09:39:17.469Z,95007.41
2023-03-03T09:42:16.829Z,95010.72
2023-03-03T09:44:50.030Z,95007.91
2023-03-03T09:47:24.945Z,95009.78
2023-03-03T09:50:22.705Z,95004.22
2023-03-03T09:53:18.993Z,95009.91
2023-03-03T09:56:00.169Z,95009.53
2023-03-03T09:58:26.972Z,95001.13
2023-03-03T10:01:08.845Z,95003.00
2023-03-03T10:03:41.768Z,95000.69
2023-03-03T10:06:50.638Z,95004.91
2023-03-03T10:09:32.075Z,95006.53
2023-03-03T10:12:24.200Z,94994.25
2023-03-03T10:15:23.531Z,94986.81
2023-03-03T10:17:53.309Z,94997.53
2023-03-03T10:20:49.045Z,94996.06
2023-03-03T10:23:56.882Z,94987.81
2023-03-03T10:27:09.826Z,94986.38
2023-03-03T10:29:56.726Z,94975.53
2023-03-03T10:32:42.574Z,94969.06
2023-03-03T10:35:38.292Z,94986.09
2023-03-03T10:38:42.052Z,94973.53
2023-03-03T10:41:41.254Z,94966.34
2023-03-03T10:44:16.904Z,94971.22
2023-03-03T10:46:49.636Z,94971.91
2023-03-03T10:49:25.691Z,94965.41
2023-03-03T10:51:58.880Z,94967.97
2023-03-03T10:54:31.701Z,94964.72
2023-03-03T10:57:23.196Z,94955.25
2023-03-03T11:00:19.441Z,94963.09
2023-03-03T11:03:23.870Z,94955.50
2023-03-03T11:06:13.874Z,94953.63
2023-03-03T11:08:53.103Z,94953.06
2023-03-03T11:11:28.117Z,94952.00
2023-03-03T11:14:00.025Z,94946.31
2023-03-03T11:16:49.178Z,94946.06
2023-03-03T11:19:48.901Z,94938.91
2023-03-03T11:22:25.397Z,94939.84
2023-03-03T11:24:56.042Z,94935.41
2023-03-03T11:28:17.473Z,94935.00
2023-03-03T11:31:09.592Z,94936.63
2023-03-03T11:33:55.104Z,94937.84
2023-03-03T11:36:26.885Z,94932.28
2023-03-03T11:38:59.009Z,94935.91
2023-03-03T11:41:40.008Z,94932.84
2023-03-03T11:44:27.572Z,94925.00
2023-03-03T11:47:06.245Z,94925.13
2023-03-03T11:49:43.794Z,94924.44
2023-03-03T11:52:47.951Z,94922.44
2023-03-03T11:55:27.175Z,94916.50
2023-03-03T11:58:08.858Z,94917.31
2023-03-03T12:00:47.785Z,94914.75
2023-03-03T12:03:42.102Z,94921.88
2023-03-03T12:06:18.982Z,94915.56
2023-03-03T12:08:59.202Z,94914.91
2023-03-03T12:11:41.959Z,94919.59
2023-03-03T12:14:50.809Z,94918.78
2023-03-03T12:17:32.645Z,94924.50
2023-03-03T12:20:16.346Z,94919.59
2023-03-03T12:23:10.726Z,94922.84
2023-03-03T12:25:43.826Z,94918.00
2023-03-03T12:28:21.206Z,94917.47
2023-03-03T12:31:15.967Z,94921.25
2023-03-03T12:33:57.120Z,94924.19
2023-03-03T12:36:48.637Z,94922.81
2023-03-03T12:39:38.268Z,94919.16
2023-03-03T12:42:16.345Z,94921.72
2023-03-03T12:45:08.140Z,94933.88
2023-03-03T12:47:41.425Z,94923.88
2023-03-03T12:50:11.251Z,94924.03
2023-03-03T12:53:19.031Z,94932.41
2023-03-03T12:56:09.162Z,94922.66
2023-03-03T12:58:45.271Z,94928.19
2023-03-03T13:01:14.735Z,94915.78
2023-03-03T13:14:38.510Z,94916.72
2023-03-03T13:17:18.123Z,94908.06
2023-03-03T13:19:57.616Z,94906.31
2023-03-03T13:22:24.466Z,94909.19
2023-03-03T13:25:22.631Z,94909.72
2023-03-03T13:27:54.029Z,94897.19
2023-03-03T13:30:26.625Z,94900.69
2023-03-03T13:33:07.762Z,94909.09
2023-03-03T13:35:53.753Z,94901.78
2023-03-03T13:38:31.899Z,94908.66
2023-03-03T13:41:17.254Z,94912.03
2023-03-03T13:43:55.168Z,94905.44
2023-03-03T13:46:22.065Z,94898.28
2023-03-03T13:49:23.847Z,94903.53
2023-03-03T13:52:00.860Z,94895.84
2023-03-03T13:55:02.936Z,94899.09
2023-03-03T13:57:58.903Z,94896.63
2023-03-03T14:00:38.847Z,94899.47
2023-03-03T14:03:18.720Z,94898.28
2023-03-03T14:05:48.692Z,94903.69
2023-03-03T14:08:24.467Z,94905.28
2023-03-03T14:11:12.249Z,94900.56
2023-03-03T14:14:17.529Z,94904.63
2023-03-03T14:16:50.451Z,94903.97
2023-03-03T14:19:34.785Z,94893.69
2023-03-03T14:22:24.080Z,94889.06
2023-03-03T14:25:14.197Z,94890.28
2023-03-03T14:27:47.057Z,94890.03
2023-03-03T14:30:44.368Z,94889.06
2023-03-03T14:33:11.255Z,94890.56
2023-03-03T14:35:43.885Z,94884.06
2023-03-03T14:38:17.015Z,94891.78
2023-03-03T14:40:46.253Z,94890.69
2023-03-03T14:43:50.143Z,94882.06
2023-03-03T14:46:22.879Z,94890.69
2023-03-03T14:48:54.898Z,94887.47
2023-03-03T14:51:43.319Z,94880.41
2023-03-03T14:54:39.994Z,94893.13
2023-03-03T14:57:10.906Z,94890.84
2023-03-03T14:59:38.068Z,94879.75
2023-03-03T15:02:17.133Z,94877.47
2023-03-03T15:04:48.699Z,94882.06
2023-03-03T15:07:31.529Z,94874.06
2023-03-03T15:09:58.436Z,94881.50
2023-03-03T15:12:43.383Z,94866.63
2023-03-03T15:15:22.541Z,94880.56
2023-03-03T15:17:54.360Z,94883.94
2023-03-03T15:20:42.559Z,94876.63
2023-03-03T15:23:34.180Z,94881.09
